sensor_id;sensor_type;location;lat;lon;timestamp;temperature;humidity
25214;DHT22;13160;51.834;4.706;2024-01-11T00:01:35;-2.80;99.90
25214;DHT22;13160;51.834;4.706;2024-01-11T00:04:03;-2.80;99.90
25214;DHT22;13160;51.834;4.706;2024-01-11T00:06:40;-2.80;99.90
25214;DHT22;13160;51.834;4.706;2024-01-11T00:09:09;-2.80;99.90
25214;DHT22;13160;51.834;4.706;2024-01-11T00:11:38;-2.80;99.90
25214;DHT22;13160;51.834;4.706;2024-01-11T00:14:07;-2.80;99.90
25214;DHT22;13160;51.834;4.706;2024-01-11T00:16:35;-2.80;99.90
25214;DHT22;13160;51.834;4.706;2024-01-11T00:19:04;-2.80;99.90
25214;DHT22;13160;51.834;4.706;2024-01-11T00:21:34;-2.80;99.90
25214;DHT22;13160;51.834;4.706;2024-01-11T00:24:07;-2.90;99.90
25214;DHT22;13160;51.834;4.706;2024-01-11T00:26:35;-2.90;99.90
25214;DHT22;13160;51.834;4.706;2024-01-11T00:29:04;-2.90;99.90
25214;DHT22;13160;51.834;4.706;2024-01-11T00:31:32;-2.90;99.90
25214;DHT22;13160;51.834;4.706;2024-01-11T00:34:02;-2.90;99.90
25214;DHT22;13160;51.834;4.706;2024-01-11T00:36:30;-2.90;99.90
25214;DHT22;13160;51.834;4.706;2024-01-11T00:39:01;-2.90;99.90
25214;DHT22;13160;51.834;4.706;2024-01-11T00:41:29;-2.90;99.90
25214;DHT22;13160;51.834;4.706;2024-01-11T00:43:58;-2.90;99.90
25214;DHT22;13160;51.834;4.706;2024-01-11T00:46:26;-2.90;99.90
25214;DHT22;13160;51.834;4.706;2024-01-11T00:48:55;-2.90;99.90
25214;DHT22;13160;51.834;4.706;2024-01-11T00:51:24;-3.00;99.90
25214;DHT22;13160;51.834;4.706;2024-01-11T00:53:52;-3.00;99.90
25214;DHT22;13160;51.834;4.706;2024-01-11T00:56:22;-3.00;99.90
25214;DHT22;13160;51.834;4.706;2024-01-11T00:58:51;-3.00;99.90
25214;DHT22;13160;51.834;4.706;2024-01-11T01:01:20;-3.00;99.90
25214;DHT22;13160;51.834;4.706;2024-01-11T01:03:49;-3.00;99.90
25214;DHT22;13160;51.834;4.706;2024-01-11T01:06:17;-3.00;99.90
25214;DHT22;13160;51.834;4.706;2024-01-11T01:08:46;-3.00;99.90
25214;DHT22;13160;51.834;4.706;2024-01-11T01:11:14;-3.10;99.90
25214;DHT22;13160;51.834;4.706;2024-01-11T01:13:44;-3.00;99.90
25214;DHT22;13160;51.834;4.706;2024-01-11T01:16:13;-3.10;99.90
25214;DHT22;13160;51.834;4.706;2024-01-11T01:18:43;-3.10;99.90
25214;DHT22;13160;51.834;4.706;2024-01-11T01:21:12;-3.10;99.90
25214;DHT22;13160;51.834;4.706;2024-01-11T01:23:41;-3.10;99.90
25214;DHT22;13160;51.834;4.706;2024-01-11T01:26:09;-3.10;99.90
25214;DHT22;13160;51.834;4.706;2024-01-11T01:28:38;-3.10;99.90
25214;DHT22;13160;51.834;4.706;2024-01-11T01:31:08;-3.20;99.90
25214;DHT22;13160;51.834;4.706;2024-01-11T01:33:38;-3.20;99.90
25214;DHT22;13160;51.834;4.706;2024-01-11T01:36:09;-3.20;99.90
25214;DHT22;13160;51.834;4.706;2024-01-11T01:38:38;-3.20;99.90
25214;DHT22;13160;51.834;4.706;2024-01-11T01:41:06;-3.20;99.90
25214;DHT22;13160;51.834;4.706;2024-01-11T01:43:35;-3.20;99.90
25214;DHT22;13160;51.834;4.706;2024-01-11T01:46:05;-3.20;99.90
25214;DHT22;13160;51.834;4.706;2024-01-11T01:48:36;-3.20;99.90
25214;DHT22;13160;51.834;4.706;2024-01-11T01:51:06;-3.30;99.90
25214;DHT22;13160;51.834;4.706;2024-01-11T01:53:35;-3.30;99.90
25214;DHT22;13160;51.834;4.706;2024-01-11T01:56:06;-3.30;99.90
25214;DHT22;13160;51.834;4.706;2024-01-11T01:58:35;-3.30;99.90
25214;DHT22;13160;51.834;4.706;2024-01-11T02:01:04;-3.30;99.90
25214;DHT22;13160;51.834;4.706;2024-01-11T02:03:38;-3.30;99.90
25214;DHT22;13160;51.834;4.706;2024-01-11T02:06:09;-3.30;99.90
25214;DHT22;13160;51.834;4.706;2024-01-11T02:08:38;-3.30;99.90
25214;DHT22;13160;51.834;4.706;2024-01-11T02:11:10;-3.30;99.90
25214;DHT22;13160;51.834;4.706;2024-01-11T02:13:39;-3.30;99.90
25214;DHT22;13160;51.834;4.706;2024-01-11T02:16:08;-3.30;99.90
25214;DHT22;13160;51.834;4.706;2024-01-11T02:18:38;-3.40;99.90
25214;DHT22;13160;51.834;4.706;2024-01-11T02:21:09;-3.40;99.90
25214;DHT22;13160;51.834;4.706;2024-01-11T02:23:43;-3.40;99.90
25214;DHT22;13160;51.834;4.706;2024-01-11T02:26:16;-3.40;99.90
25214;DHT22;13160;51.834;4.706;2024-01-11T02:28:45;-3.40;99.90
25214;DHT22;13160;51.834;4.706;2024-01-11T02:31:14;-3.40;99.90
25214;DHT22;13160;51.834;4.706;2024-01-11T02:33:43;-3.40;99.90
25214;DHT22;13160;51.834;4.706;2024-01-11T02:36:12;-3.40;99.90
25214;DHT22;13160;51.834;4.706;2024-01-11T02:38:42;-3.40;99.90
25214;DHT22;13160;51.834;4.706;2024-01-11T02:41:11;-3.40;99.90
25214;DHT22;13160;51.834;4.706;2024-01-11T02:43:46;-3.40;99.90
25214;DHT22;13160;51.834;4.706;2024-01-11T02:46:16;-3.40;99.90
25214;DHT22;13160;51.834;4.706;2024-01-11T02:48:45;-3.40;99.90
25214;DHT22;13160;51.834;4.706;2024-01-11T02:51:14;-3.40;99.90
25214;DHT22;13160;51.834;4.706;2024-01-11T02:53:42;-3.40;99.90
25214;DHT22;13160;51.834;4.706;2024-01-11T02:56:11;-3.40;99.90
25214;DHT22;13160;51.834;4.706;2024-01-11T02:58:39;-3.50;99.90
25214;DHT22;13160;51.834;4.706;2024-01-11T03:01:09;-3.50;99.90
25214;DHT22;13160;51.834;4.706;2024-01-11T03:03:38;-3.50;99.90
25214;DHT22;13160;51.834;4.706;2024-01-11T03:06:06;-3.50;99.90
25214;DHT22;13160;51.834;4.706;2024-01-11T03:08:35;-3.50;99.90
25214;DHT22;13160;51.834;4.706;2024-01-11T03:11:04;-3.50;99.90
25214;DHT22;13160;51.834;4.706;2024-01-11T03:13:32;-3.60;99.90
25214;DHT22;13160;51.834;4.706;2024-01-11T03:16:01;-3.60;99.90
25214;DHT22;13160;51.834;4.706;2024-01-11T03:18:31;-3.60;99.90
25214;DHT22;13160;51.834;4.706;2024-01-11T03:21:00;-3.60;99.90
25214;DHT22;13160;51.834;4.706;2024-01-11T03:23:28;-3.60;99.90
25214;DHT22;13160;51.834;4.706;2024-01-11T03:25:57;-3.60;99.90
25214;DHT22;13160;51.834;4.706;2024-01-11T03:28:25;-3.60;99.90
25214;DHT22;13160;51.834;4.706;2024-01-11T03:30:54;-3.70;99.90
25214;DHT22;13160;51.834;4.706;2024-01-11T03:33:23;-3.70;99.90
25214;DHT22;13160;51.834;4.706;2024-01-11T03:35:53;-3.70;99.90
25214;DHT22;13160;51.834;4.706;2024-01-11T03:38:22;-3.70;99.90
25214;DHT22;13160;51.834;4.706;2024-01-11T03:40:50;-3.70;99.90
25214;DHT22;13160;51.834;4.706;2024-01-11T03:43:19;-3.70;99.90
25214;DHT22;13160;51.834;4.706;2024-01-11T03:45:47;-3.70;99.90
25214;DHT22;13160;51.834;4.706;2024-01-11T03:48:16;-3.80;99.90
25214;DHT22;13160;51.834;4.706;2024-01-11T03:50:45;-3.80;99.90
25214;DHT22;13160;51.834;4.706;2024-01-11T03:53:15;-3.80;99.90
25214;DHT22;13160;51.834;4.706;2024-01-11T03:55:43;-3.80;99.90
25214;DHT22;13160;51.834;4.706;2024-01-11T03:58:11;-3.80;99.90
25214;DHT22;13160;51.834;4.706;2024-01-11T04:00:41;-3.80;99.90
25214;DHT22;13160;51.834;4.706;2024-01-11T04:03:09;-3.90;99.90
25214;DHT22;13160;51.834;4.706;2024-01-11T04:05:38;-3.90;99.90
25214;DHT22;13160;51.834;4.706;2024-01-11T04:08:07;-3.90;99.90
25214;DHT22;13160;51.834;4.706;2024-01-11T04:10:38;-3.90;99.90
25214;DHT22;13160;51.834;4.706;2024-01-11T04:13:07;-3.90;99.90
25214;DHT22;13160;51.834;4.706;2024-01-11T04:15:36;-3.90;99.90
25214;DHT22;13160;51.834;4.706;2024-01-11T04:18:04;-3.90;99.90
25214;DHT22;13160;51.834;4.706;2024-01-11T04:20:33;-3.90;99.90
25214;DHT22;13160;51.834;4.706;2024-01-11T04:23:02;-3.90;99.90
25214;DHT22;13160;51.834;4.706;2024-01-11T04:25:31;-4.00;99.90
25214;DHT22;13160;51.834;4.706;2024-01-11T04:28:01;-4.00;99.90
25214;DHT22;13160;51.834;4.706;2024-01-11T04:30:29;-4.00;99.90
25214;DHT22;13160;51.834;4.706;2024-01-11T04:32:59;-4.00;99.90
25214;DHT22;13160;51.834;4.706;2024-01-11T04:35:28;-4.00;99.90
25214;DHT22;13160;51.834;4.706;2024-01-11T04:37:57;-4.00;99.90
25214;DHT22;13160;51.834;4.706;2024-01-11T04:40:25;-4.00;99.90
25214;DHT22;13160;51.834;4.706;2024-01-11T04:42:53;-4.00;99.90
25214;DHT22;13160;51.834;4.706;2024-01-11T04:45:23;-4.00;99.90
25214;DHT22;13160;51.834;4.706;2024-01-11T04:47:52;-4.00;99.90
25214;DHT22;13160;51.834;4.706;2024-01-11T04:50:21;-4.00;99.90
25214;DHT22;13160;51.834;4.706;2024-01-11T04:52:49;-4.00;99.90
25214;DHT22;13160;51.834;4.706;2024-01-11T04:55:17;-4.00;99.90
25214;DHT22;13160;51.834;4.706;2024-01-11T04:57:46;-4.00;99.90
25214;DHT22;13160;51.834;4.706;2024-01-11T05:00:15;-4.10;99.90
25214;DHT22;13160;51.834;4.706;2024-01-11T05:02:45;-4.10;99.90
25214;DHT22;13160;51.834;4.706;2024-01-11T05:05:14;-4.10;99.90
25214;DHT22;13160;51.834;4.706;2024-01-11T05:07:43;-4.10;99.90
25214;DHT22;13160;51.834;4.706;2024-01-11T05:10:11;-4.10;99.90
25214;DHT22;13160;51.834;4.706;2024-01-11T05:12:40;-4.10;99.90
25214;DHT22;13160;51.834;4.706;2024-01-11T05:15:09;-4.10;99.90
25214;DHT22;13160;51.834;4.706;2024-01-11T05:17:38;-4.10;99.90
25214;DHT22;13160;51.834;4.706;2024-01-11T05:20:09;-4.10;99.90
25214;DHT22;13160;51.834;4.706;2024-01-11T05:22:38;-4.20;99.90
25214;DHT22;13160;51.834;4.706;2024-01-11T05:25:07;-4.20;99.90
25214;DHT22;13160;51.834;4.706;2024-01-11T05:27:36;-4.20;99.90
25214;DHT22;13160;51.834;4.706;2024-01-11T05:30:05;-4.20;99.90
25214;DHT22;13160;51.834;4.706;2024-01-11T05:32:36;-4.20;99.90
25214;DHT22;13160;51.834;4.706;2024-01-11T05:35:05;-4.20;99.90
25214;DHT22;13160;51.834;4.706;2024-01-11T05:37:35;-4.20;99.90
25214;DHT22;13160;51.834;4.706;2024-01-11T05:40:04;-4.20;99.90
25214;DHT22;13160;51.834;4.706;2024-01-11T05:42:33;-4.20;99.90
25214;DHT22;13160;51.834;4.706;2024-01-11T05:45:01;-4.20;99.90
25214;DHT22;13160;51.834;4.706;2024-01-11T05:47:30;-4.20;99.90
25214;DHT22;13160;51.834;4.706;2024-01-11T05:49:58;-4.20;99.90
25214;DHT22;13160;51.834;4.706;2024-01-11T05:52:27;-4.20;99.90
25214;DHT22;13160;51.834;4.706;2024-01-11T05:54:57;-4.20;99.90
25214;DHT22;13160;51.834;4.706;2024-01-11T05:57:26;-4.20;99.90
25214;DHT22;13160;51.834;4.706;2024-01-11T05:59:54;-4.20;99.90
25214;DHT22;13160;51.834;4.706;2024-01-11T06:02:22;-4.20;99.90
25214;DHT22;13160;51.834;4.706;2024-01-11T06:04:51;-4.20;99.90
25214;DHT22;13160;51.834;4.706;2024-01-11T06:07:19;-4.20;99.90
25214;DHT22;13160;51.834;4.706;2024-01-11T06:09:48;-4.20;99.90
25214;DHT22;13160;51.834;4.706;2024-01-11T06:12:17;-4.20;99.90
25214;DHT22;13160;51.834;4.706;2024-01-11T06:14:46;-4.20;99.90
25214;DHT22;13160;51.834;4.706;2024-01-11T06:17:14;-4.20;99.90
25214;DHT22;13160;51.834;4.706;2024-01-11T06:19:43;-4.20;99.90
25214;DHT22;13160;51.834;4.706;2024-01-11T06:22:12;-4.30;99.90
25214;DHT22;13160;51.834;4.706;2024-01-11T06:24:40;-4.30;99.90
25214;DHT22;13160;51.834;4.706;2024-01-11T06:27:09;-4.30;99.90
25214;DHT22;13160;51.834;4.706;2024-01-11T06:29:38;-4.30;99.90
25214;DHT22;13160;51.834;4.706;2024-01-11T06:32:07;-4.30;99.90
25214;DHT22;13160;51.834;4.706;2024-01-11T06:34:36;-4.40;99.90
25214;DHT22;13160;51.834;4.706;2024-01-11T06:37:04;-4.40;99.90
25214;DHT22;13160;51.834;4.706;2024-01-11T06:39:33;-4.40;99.90
25214;DHT22;13160;51.834;4.706;2024-01-11T06:42:01;-4.40;99.90
25214;DHT22;13160;51.834;4.706;2024-01-11T06:44:30;-4.40;99.90
25214;DHT22;13160;51.834;4.706;2024-01-11T06:47:00;-4.40;99.90
25214;DHT22;13160;51.834;4.706;2024-01-11T06:49:31;-4.40;99.90
25214;DHT22;13160;51.834;4.706;2024-01-11T06:52:00;-4.40;99.90
25214;DHT22;13160;51.834;4.706;2024-01-11T06:54:29;-4.40;99.90
25214;DHT22;13160;51.834;4.706;2024-01-11T06:56:59;-4.40;99.90
25214;DHT22;13160;51.834;4.706;2024-01-11T06:59:27;-4.40;99.90
25214;DHT22;13160;51.834;4.706;2024-01-11T07:01:56;-4.40;99.90
25214;DHT22;13160;51.834;4.706;2024-01-11T07:04:27;-4.40;99.90
25214;DHT22;13160;51.834;4.706;2024-01-11T07:07:00;-4.40;99.90
25214;DHT22;13160;51.834;4.706;2024-01-11T07:09:31;-4.40;99.90
25214;DHT22;13160;51.834;4.706;2024-01-11T07:12:00;-4.40;99.90
25214;DHT22;13160;51.834;4.706;2024-01-11T07:14:29;-4.40;99.90
25214;DHT22;13160;51.834;4.706;2024-01-11T07:16:58;-4.40;99.90
25214;DHT22;13160;51.834;4.706;2024-01-11T07:19:28;-4.40;99.90
25214;DHT22;13160;51.834;4.706;2024-01-11T07:21:57;-4.40;99.90
25214;DHT22;13160;51.834;4.706;2024-01-11T07:24:26;-4.40;99.90
25214;DHT22;13160;51.834;4.706;2024-01-11T07:26:56;-4.40;99.90
25214;DHT22;13160;51.834;4.706;2024-01-11T07:29:25;-4.40;99.90
25214;DHT22;13160;51.834;4.706;2024-01-11T07:31:53;-4.40;99.90
25214;DHT22;13160;51.834;4.706;2024-01-11T07:34:22;-4.40;99.90
25214;DHT22;13160;51.834;4.706;2024-01-11T07:36:53;-4.40;99.90
25214;DHT22;13160;51.834;4.706;2024-01-11T07:39:22;-4.30;99.90
25214;DHT22;13160;51.834;4.706;2024-01-11T07:41:51;-4.40;99.90
25214;DHT22;13160;51.834;4.706;2024-01-11T07:44:20;-4.30;99.90
25214;DHT22;13160;51.834;4.706;2024-01-11T07:46:48;-4.30;99.90
25214;DHT22;13160;51.834;4.706;2024-01-11T07:49:21;-4.30;99.90
25214;DHT22;13160;51.834;4.706;2024-01-11T07:51:50;-4.30;99.90
25214;DHT22;13160;51.834;4.706;2024-01-11T07:54:20;-4.30;99.90
25214;DHT22;13160;51.834;4.706;2024-01-11T07:56:48;-4.30;99.90
25214;DHT22;13160;51.834;4.706;2024-01-11T07:59:17;-4.30;99.90
25214;DHT22;13160;51.834;4.706;2024-01-11T08:01:46;-4.20;99.90
25214;DHT22;13160;51.834;4.706;2024-01-11T08:04:15;-4.20;99.90
25214;DHT22;13160;51.834;4.706;2024-01-11T08:06:43;-4.20;99.90
25214;DHT22;13160;51.834;4.706;2024-01-11T08:09:12;-4.20;99.90
25214;DHT22;13160;51.834;4.706;2024-01-11T08:11:42;-4.10;99.90
25214;DHT22;13160;51.834;4.706;2024-01-11T08:14:17;-4.10;99.90
25214;DHT22;13160;51.834;4.706;2024-01-11T08:16:45;-4.10;99.90
25214;DHT22;13160;51.834;4.706;2024-01-11T08:19:14;-4.10;99.90
25214;DHT22;13160;51.834;4.706;2024-01-11T08:21:43;-4.10;99.90
25214;DHT22;13160;51.834;4.706;2024-01-11T08:24:12;-4.00;99.90
25214;DHT22;13160;51.834;4.706;2024-01-11T08:26:42;-4.00;99.90
25214;DHT22;13160;51.834;4.706;2024-01-11T08:29:11;-4.00;99.90
25214;DHT22;13160;51.834;4.706;2024-01-11T08:31:41;-4.00;99.90
25214;DHT22;13160;51.834;4.706;2024-01-11T08:34:10;-3.90;99.90
25214;DHT22;13160;51.834;4.706;2024-01-11T08:36:39;-3.90;99.90
25214;DHT22;13160;51.834;4.706;2024-01-11T08:39:08;-3.90;99.90
25214;DHT22;13160;51.834;4.706;2024-01-11T08:41:38;-3.90;99.90
25214;DHT22;13160;51.834;4.706;2024-01-11T08:44:08;-3.90;99.90
25214;DHT22;13160;51.834;4.706;2024-01-11T08:46:37;-3.90;99.90
25214;DHT22;13160;51.834;4.706;2024-01-11T08:49:05;-3.80;99.90
25214;DHT22;13160;51.834;4.706;2024-01-11T08:51:35;-3.80;99.90
25214;DHT22;13160;51.834;4.706;2024-01-11T08:54:04;-3.80;99.90
25214;DHT22;13160;51.834;4.706;2024-01-11T08:56:37;-3.70;99.90
25214;DHT22;13160;51.834;4.706;2024-01-11T08:59:09;-3.70;99.90
25214;DHT22;13160;51.834;4.706;2024-01-11T09:01:38;-3.70;99.90
25214;DHT22;13160;51.834;4.706;2024-01-11T09:04:15;-3.60;99.90
25214;DHT22;13160;51.834;4.706;2024-01-11T09:06:45;-3.60;99.90
25214;DHT22;13160;51.834;4.706;2024-01-11T09:09:13;-3.60;99.90
25214;DHT22;13160;51.834;4.706;2024-01-11T09:11:44;-3.50;99.90
25214;DHT22;13160;51.834;4.706;2024-01-11T09:14:14;-3.50;99.90
25214;DHT22;13160;51.834;4.706;2024-01-11T09:16:42;-3.40;99.90
25214;DHT22;13160;51.834;4.706;2024-01-11T09:19:12;-3.30;99.90
25214;DHT22;13160;51.834;4.706;2024-01-11T09:21:41;-3.30;99.90
25214;DHT22;13160;51.834;4.706;2024-01-11T09:24:10;-3.20;99.90
25214;DHT22;13160;51.834;4.706;2024-01-11T09:26:39;-3.20;99.90
25214;DHT22;13160;51.834;4.706;2024-01-11T09:29:07;-3.10;99.90
25214;DHT22;13160;51.834;4.706;2024-01-11T09:31:37;-3.10;99.90
25214;DHT22;13160;51.834;4.706;2024-01-11T09:34:06;-3.00;99.90
25214;DHT22;13160;51.834;4.706;2024-01-11T09:36:34;-3.00;99.90
25214;DHT22;13160;51.834;4.706;2024-01-11T09:39:06;-2.90;99.90
25214;DHT22;13160;51.834;4.706;2024-01-11T09:41:37;-2.90;99.90
25214;DHT22;13160;51.834;4.706;2024-01-11T09:44:06;-2.80;99.90
25214;DHT22;13160;51.834;4.706;2024-01-11T09:46:37;-2.70;99.90
25214;DHT22;13160;51.834;4.706;2024-01-11T09:49:07;-2.60;99.90
25214;DHT22;13160;51.834;4.706;2024-01-11T09:51:38;-2.50;99.90
25214;DHT22;13160;51.834;4.706;2024-01-11T09:54:08;-2.50;99.90
25214;DHT22;13160;51.834;4.706;2024-01-11T09:56:38;-2.40;99.90
25214;DHT22;13160;51.834;4.706;2024-01-11T09:59:09;-2.30;99.90
25214;DHT22;13160;51.834;4.706;2024-01-11T10:01:41;-2.30;99.90
25214;DHT22;13160;51.834;4.706;2024-01-11T10:04:11;-2.20;99.90
25214;DHT22;13160;51.834;4.706;2024-01-11T10:06:41;-2.10;99.90
25214;DHT22;13160;51.834;4.706;2024-01-11T10:09:10;-2.00;99.90
25214;DHT22;13160;51.834;4.706;2024-01-11T10:11:40;-1.90;99.90
25214;DHT22;13160;51.834;4.706;2024-01-11T10:14:08;-1.80;99.90
25214;DHT22;13160;51.834;4.706;2024-01-11T10:16:42;-1.80;99.90
25214;DHT22;13160;51.834;4.706;2024-01-11T10:19:12;-1.70;99.90
25214;DHT22;13160;51.834;4.706;2024-01-11T10:21:44;-1.60;99.90
25214;DHT22;13160;51.834;4.706;2024-01-11T10:24:18;-1.60;99.90
25214;DHT22;13160;51.834;4.706;2024-01-11T10:26:50;-1.50;99.90
25214;DHT22;13160;51.834;4.706;2024-01-11T10:29:19;-1.40;99.90
25214;DHT22;13160;51.834;4.706;2024-01-11T10:31:50;-1.30;99.90
25214;DHT22;13160;51.834;4.706;2024-01-11T10:34:20;-1.30;99.90
25214;DHT22;13160;51.834;4.706;2024-01-11T10:36:50;-1.20;99.90
25214;DHT22;13160;51.834;4.706;2024-01-11T10:39:24;-1.10;99.90
25214;DHT22;13160;51.834;4.706;2024-01-11T10:42:04;-1.00;99.90
25214;DHT22;13160;51.834;4.706;2024-01-11T10:44:35;-1.00;99.90
25214;DHT22;13160;51.834;4.706;2024-01-11T10:47:07;-0.90;99.90
25214;DHT22;13160;51.834;4.706;2024-01-11T10:49:40;-0.80;99.90
25214;DHT22;13160;51.834;4.706;2024-01-11T10:52:12;-0.80;99.90
25214;DHT22;13160;51.834;4.706;2024-01-11T10:54:42;-0.70;99.90
25214;DHT22;13160;51.834;4.706;2024-01-11T10:57:12;-0.60;99.90
25214;DHT22;13160;51.834;4.706;2024-01-11T10:59:41;-0.50;99.90
25214;DHT22;13160;51.834;4.706;2024-01-11T11:02:13;-0.40;99.90
25214;DHT22;13160;51.834;4.706;2024-01-11T11:04:43;-0.30;99.90
25214;DHT22;13160;51.834;4.706;2024-01-11T11:07:12;-0.30;99.90
25214;DHT22;13160;51.834;4.706;2024-01-11T11:09:42;-0.20;99.90
25214;DHT22;13160;51.834;4.706;2024-01-11T11:12:12;-0.10;99.90
25214;DHT22;13160;51.834;4.706;2024-01-11T11:14:42;-0.10;99.90
25214;DHT22;13160;51.834;4.706;2024-01-11T11:17:14;0.00;99.90
25214;DHT22;13160;51.834;4.706;2024-01-11T11:19:43;0.00;99.90
25214;DHT22;13160;51.834;4.706;2024-01-11T11:22:13;0.10;99.90
25214;DHT22;13160;51.834;4.706;2024-01-11T11:24:43;0.10;99.90
25214;DHT22;13160;51.834;4.706;2024-01-11T11:27:13;0.10;99.90
25214;DHT22;13160;51.834;4.706;2024-01-11T11:29:47;0.20;99.90
25214;DHT22;13160;51.834;4.706;2024-01-11T11:32:18;0.20;99.90
25214;DHT22;13160;51.834;4.706;2024-01-11T11:35:03;0.20;99.90
25214;DHT22;13160;51.834;4.706;2024-01-11T11:37:36;0.20;99.90
25214;DHT22;13160;51.834;4.706;2024-01-11T11:40:07;0.30;99.90
25214;DHT22;13160;51.834;4.706;2024-01-11T11:42:37;0.30;99.90
25214;DHT22;13160;51.834;4.706;2024-01-11T11:45:08;0.30;99.90
25214;DHT22;13160;51.834;4.706;2024-01-11T11:47:40;0.30;99.90
25214;DHT22;13160;51.834;4.706;2024-01-11T11:50:10;0.40;99.90
25214;DHT22;13160;51.834;4.706;2024-01-11T11:52:40;0.40;99.90
25214;DHT22;13160;51.834;4.706;2024-01-11T11:55:09;0.50;99.90
25214;DHT22;13160;51.834;4.706;2024-01-11T11:57:38;0.50;99.90
25214;DHT22;13160;51.834;4.706;2024-01-11T12:00:07;0.50;99.90
25214;DHT22;13160;51.834;4.706;2024-01-11T12:02:40;0.60;99.90
25214;DHT22;13160;51.834;4.706;2024-01-11T12:05:08;0.60;99.90
25214;DHT22;13160;51.834;4.706;2024-01-11T12:07:37;0.70;99.90
25214;DHT22;13160;51.834;4.706;2024-01-11T12:10:06;0.70;99.90
25214;DHT22;13160;51.834;4.706;2024-01-11T12:12:35;0.70;99.90
25214;DHT22;13160;51.834;4.706;2024-01-11T12:15:08;0.80;99.90
25214;DHT22;13160;51.834;4.706;2024-01-11T12:17:39;0.80;99.90
25214;DHT22;13160;51.834;4.706;2024-01-11T12:20:10;0.90;99.90
25214;DHT22;13160;51.834;4.706;2024-01-11T12:22:40;0.90;99.90
25214;DHT22;13160;51.834;4.706;2024-01-11T12:25:09;1.00;99.90
25214;DHT22;13160;51.834;4.706;2024-01-11T12:27:39;1.00;99.90
25214;DHT22;13160;51.834;4.706;2024-01-11T12:30:08;1.00;99.90
25214;DHT22;13160;51.834;4.706;2024-01-11T12:32:43;1.10;99.90
25214;DHT22;13160;51.834;4.706;2024-01-11T12:35:14;1.10;99.90
25214;DHT22;13160;51.834;4.706;2024-01-11T12:37:52;1.20;99.90
25214;DHT22;13160;51.834;4.706;2024-01-11T12:40:21;1.20;99.90
25214;DHT22;13160;51.834;4.706;2024-01-11T12:42:49;1.20;99.90
25214;DHT22;13160;51.834;4.706;2024-01-11T12:45:21;1.40;99.90
25214;DHT22;13160;51.834;4.706;2024-01-11T12:47:51;1.30;99.90
25214;DHT22;13160;51.834;4.706;2024-01-11T12:50:20;1.40;99.90
25214;DHT22;13160;51.834;4.706;2024-01-11T12:53:07;1.40;99.90
25214;DHT22;13160;51.834;4.706;2024-01-11T12:55:39;1.50;99.90
25214;DHT22;13160;51.834;4.706;2024-01-11T12:58:23;1.50;99.90
25214;DHT22;13160;51.834;4.706;2024-01-11T13:00:53;1.60;99.90
25214;DHT22;13160;51.834;4.706;2024-01-11T13:03:24;1.60;99.90
25214;DHT22;13160;51.834;4.706;2024-01-11T13:05:54;1.70;99.90
25214;DHT22;13160;51.834;4.706;2024-01-11T13:08:23;1.70;99.90
25214;DHT22;13160;51.834;4.706;2024-01-11T13:10:52;1.80;99.90
25214;DHT22;13160;51.834;4.706;2024-01-11T13:13:20;1.80;99.90
25214;DHT22;13160;51.834;4.706;2024-01-11T13:15:51;1.90;99.90
25214;DHT22;13160;51.834;4.706;2024-01-11T13:18:20;1.90;99.90
25214;DHT22;13160;51.834;4.706;2024-01-11T13:20:50;1.90;99.90
25214;DHT22;13160;51.834;4.706;2024-01-11T13:23:19;2.00;99.90
25214;DHT22;13160;51.834;4.706;2024-01-11T13:25:49;2.00;99.90
25214;DHT22;13160;51.834;4.706;2024-01-11T13:28:18;2.00;99.90
25214;DHT22;13160;51.834;4.706;2024-01-11T13:30:47;2.00;99.90
25214;DHT22;13160;51.834;4.706;2024-01-11T13:33:16;2.10;99.90
25214;DHT22;13160;51.834;4.706;2024-01-11T13:35:46;2.10;99.90
25214;DHT22;13160;51.834;4.706;2024-01-11T13:38:16;2.10;99.90
25214;DHT22;13160;51.834;4.706;2024-01-11T13:40:48;2.20;99.90
25214;DHT22;13160;51.834;4.706;2024-01-11T13:43:17;2.20;99.90
25214;DHT22;13160;51.834;4.706;2024-01-11T13:45:46;2.20;99.90
25214;DHT22;13160;51.834;4.706;2024-01-11T13:48:14;2.30;99.90
25214;DHT22;13160;51.834;4.706;2024-01-11T13:50:43;2.30;99.90
25214;DHT22;13160;51.834;4.706;2024-01-11T13:53:12;2.30;99.90
25214;DHT22;13160;51.834;4.706;2024-01-11T13:55:42;2.30;99.90
25214;DHT22;13160;51.834;4.706;2024-01-11T13:58:10;2.40;99.90
25214;DHT22;13160;51.834;4.706;2024-01-11T14:00:41;2.40;99.90
25214;DHT22;13160;51.834;4.706;2024-01-11T14:03:09;2.40;99.90
25214;DHT22;13160;51.834;4.706;2024-01-11T14:05:38;2.40;99.90
25214;DHT22;13160;51.834;4.706;2024-01-11T14:08:06;2.40;99.90
25214;DHT22;13160;51.834;4.706;2024-01-11T14:10:35;2.40;99.90
25214;DHT22;13160;51.834;4.706;2024-01-11T14:13:05;2.50;99.90
25214;DHT22;13160;51.834;4.706;2024-01-11T14:15:34;2.50;99.90
25214;DHT22;13160;51.834;4.706;2024-01-11T14:18:02;2.50;99.90
25214;DHT22;13160;51.834;4.706;2024-01-11T14:20:32;2.50;99.90
25214;DHT22;13160;51.834;4.706;2024-01-11T14:23:01;2.50;99.90
25214;DHT22;13160;51.834;4.706;2024-01-11T14:25:30;2.50;99.90
25214;DHT22;13160;51.834;4.706;2024-01-11T14:27:58;2.60;99.90
25214;DHT22;13160;51.834;4.706;2024-01-11T14:30:29;2.60;99.90
25214;DHT22;13160;51.834;4.706;2024-01-11T14:32:58;2.60;99.90
25214;DHT22;13160;51.834;4.706;2024-01-11T14:35:27;2.60;99.90
25214;DHT22;13160;51.834;4.706;2024-01-11T14:37:55;2.60;99.90
25214;DHT22;13160;51.834;4.706;2024-01-11T14:40:24;2.70;99.90
25214;DHT22;13160;51.834;4.706;2024-01-11T14:42:54;2.70;99.90
25214;DHT22;13160;51.834;4.706;2024-01-11T14:45:23;2.70;99.90
25214;DHT22;13160;51.834;4.706;2024-01-11T14:47:53;2.70;99.90
25214;DHT22;13160;51.834;4.706;2024-01-11T14:50:21;2.70;99.90
25214;DHT22;13160;51.834;4.706;2024-01-11T14:52:50;2.70;99.90
25214;DHT22;13160;51.834;4.706;2024-01-11T14:55:19;2.70;99.90
25214;DHT22;13160;51.834;4.706;2024-01-11T14:57:47;2.70;99.90
25214;DHT22;13160;51.834;4.706;2024-01-11T15:00:19;2.70;99.90
25214;DHT22;13160;51.834;4.706;2024-01-11T15:02:48;2.70;99.90
25214;DHT22;13160;51.834;4.706;2024-01-11T15:05:18;2.70;99.90
25214;DHT22;13160;51.834;4.706;2024-01-11T15:07:48;2.70;99.90
25214;DHT22;13160;51.834;4.706;2024-01-11T15:10:17;2.70;99.90
25214;DHT22;13160;51.834;4.706;2024-01-11T15:12:46;2.70;99.90
25214;DHT22;13160;51.834;4.706;2024-01-11T15:15:14;2.80;99.90
25214;DHT22;13160;51.834;4.706;2024-01-11T15:17:43;2.80;99.90
25214;DHT22;13160;51.834;4.706;2024-01-11T15:20:15;2.70;99.90
25214;DHT22;13160;51.834;4.706;2024-01-11T15:22:45;2.80;99.90
25214;DHT22;13160;51.834;4.706;2024-01-11T15:25:16;2.80;99.90
25214;DHT22;13160;51.834;4.706;2024-01-11T15:27:45;2.80;99.90
25214;DHT22;13160;51.834;4.706;2024-01-11T15:30:14;2.80;99.90
25214;DHT22;13160;51.834;4.706;2024-01-11T15:32:44;2.80;99.90
25214;DHT22;13160;51.834;4.706;2024-01-11T15:35:13;2.80;99.90
25214;DHT22;13160;51.834;4.706;2024-01-11T15:37:42;2.80;99.90
25214;DHT22;13160;51.834;4.706;2024-01-11T15:40:12;2.80;99.90
25214;DHT22;13160;51.834;4.706;2024-01-11T15:42:41;2.80;99.90
25214;DHT22;13160;51.834;4.706;2024-01-11T15:45:09;2.80;99.90
25214;DHT22;13160;51.834;4.706;2024-01-11T15:47:38;2.80;99.90
25214;DHT22;13160;51.834;4.706;2024-01-11T15:50:08;2.80;99.90